Time;durP1;ratioP1;P1;durP2;ratioP2;P2;SDS_P1;SDS_P2;PMS_P1;PMS_P2;Temp;Humidity;BMP_temperature;BMP_pressure;BME280_temperature;BME280_humidity;BME280_pressure;Samples;Min_cycle;Max_cycle;Signal;HPM_P1;HPM_P2
2022/01/05 00:00:54;;;;;;;10.60;9.60;;;4.70;99.90;;;5.56;100.00;96442.59;5243294;28;20575;-66
2022/01/05 00:03:29;;;;;;;11.57;10.47;;;4.70;99.90;;;5.54;100.00;96434.03;5242425;28;20254;-69
2022/01/05 00:06:03;;;;;;;11.60;10.60;;;4.70;99.90;;;5.50;100.00;96422.00;5243619;28;20659;-68
2022/01/05 00:08:36;;;;;;;11.80;10.73;;;4.80;99.90;;;5.50;100.00;96424.53;5241706;28;20216;-66
2022/01/05 00:11:10;;;;;;;11.10;10.10;;;4.80;99.90;;;5.48;100.00;96419.38;5244776;28;20265;-68
2022/01/05 00:13:43;;;;;;;10.37;9.47;;;4.70;99.90;;;5.50;100.00;96419.47;5242718;28;20204;-69
2022/01/05 00:16:16;;;;;;;9.97;9.00;;;4.70;99.90;;;5.60;100.00;96417.47;5243667;28;20265;-69
2022/01/05 00:18:51;;;;;;;9.03;8.30;;;4.70;99.90;;;5.63;100.00;96431.97;5242934;28;20206;-65
2022/01/05 00:21:24;;;;;;;8.80;8.00;;;4.80;99.90;;;5.58;100.00;96429.22;5241851;28;20215;-66
2022/01/05 00:23:57;;;;;;;7.83;7.23;;;4.80;99.90;;;5.57;100.00;96421.53;5243268;28;20411;-68
2022/01/05 00:26:30;;;;;;;8.23;7.53;;;4.80;99.90;;;5.55;100.00;96418.94;5242367;28;20636;-68
2022/01/05 00:29:04;;;;;;;9.37;8.57;;;4.90;99.90;;;5.60;100.00;96422.53;5243883;28;20691;-67
2022/01/05 00:31:37;;;;;;;11.87;10.77;;;4.90;99.90;;;5.66;100.00;96414.41;5242231;28;20220;-69
2022/01/05 00:34:12;;;;;;;9.57;8.77;;;4.90;99.90;;;5.66;100.00;96416.94;5237818;28;20204;-66
2022/01/05 00:36:45;;;;;;;8.77;7.97;;;4.90;99.90;;;5.62;100.00;96413.38;5241949;28;20204;-66
2022/01/05 00:39:18;;;;;;;10.00;9.03;;;4.90;99.90;;;5.64;100.00;96405.88;5243018;28;20219;-66
2022/01/05 00:41:52;;;;;;;6.10;5.70;;;4.90;99.90;;;5.67;100.00;96400.94;5242974;28;20220;-69
2022/01/05 00:44:25;;;;;;;6.00;5.50;;;4.90;99.90;;;5.62;100.00;96404.91;5241932;28;20203;-66
2022/01/05 00:46:58;;;;;;;5.90;5.40;;;4.90;99.90;;;5.69;100.00;96404.41;5243992;28;20723;-66
2022/01/05 00:49:33;;;;;;;5.13;4.83;;;4.80;99.90;;;5.58;100.00;96396.28;5242834;28;20216;-66
2022/01/05 00:52:07;;;;;;;5.83;5.43;;;4.80;99.90;;;5.54;100.00;96401.97;5241861;28;20224;-66
2022/01/05 00:54:41;;;;;;;10.53;9.77;;;4.80;99.90;;;5.53;100.00;96404.44;5240813;28;20205;-68
2022/01/05 00:57:15;;;;;;;6.77;6.37;;;4.80;99.90;;;5.56;100.00;96391.91;5243963;28;20196;-68
2022/01/05 00:59:48;;;;;;;5.97;5.57;;;4.80;99.90;;;5.60;100.00;96393.81;5242887;28;20194;-68
2022/01/05 01:02:21;;;;;;;4.63;4.33;;;4.90;99.90;;;5.65;100.00;96388.19;5242534;28;20726;-68
2022/01/05 01:04:56;;;;;;;4.53;4.23;;;4.90;99.90;;;5.64;100.00;96380.53;5242831;28;20196;-68
2022/01/05 01:07:29;;;;;;;5.20;4.90;;;5.00;99.90;;;5.66;100.00;96373.84;5242401;28;20199;-68
2022/01/05 01:10:02;;;;;;;5.93;5.43;;;5.00;99.90;;;5.64;100.00;96376.31;5241498;28;20221;-68
2022/01/05 01:12:35;;;;;;;6.60;6.10;;;5.00;99.90;;;5.68;100.00;96377.34;5241570;28;20217;-68
2022/01/05 01:15:12;;;;;;;9.27;8.57;;;5.00;99.90;;;5.66;100.00;96371.31;5242861;28;20562;-68
2022/01/05 01:17:45;;;;;;;8.10;7.53;;;5.00;99.90;;;5.67;100.00;96375.59;5241224;28;20216;-66
2022/01/05 01:20:20;;;;;;;7.07;6.57;;;5.00;99.90;;;5.75;100.00;96373.44;5242547;28;20199;-69
2022/01/05 01:22:53;;;;;;;7.10;6.50;;;5.00;99.90;;;5.77;100.00;96371.88;5242268;28;20223;-66
2022/01/05 01:25:26;;;;;;;5.27;4.87;;;5.00;99.90;;;5.75;100.00;96381.94;5240899;28;20209;-66
2022/01/05 01:28:00;;;;;;;4.23;3.93;;;5.00;99.90;;;5.70;100.00;96385.91;5241761;28;20192;-66
2022/01/05 01:30:34;;;;;;;3.87;3.60;;;5.00;99.90;;;5.73;100.00;96391.13;5241111;28;20224;-69
2022/01/05 01:33:07;;;;;;;4.47;4.17;;;5.10;99.90;;;5.75;100.00;96383.59;5242381;28;20201;-66
2022/01/05 01:35:42;;;;;;;4.80;4.30;;;5.10;99.90;;;5.77;100.00;96387.94;5240623;28;20189;-66
2022/01/05 01:38:15;;;;;;;4.67;4.27;;;5.10;99.90;;;5.80;100.00;96395.69;5242899;28;20196;-66
2022/01/05 01:40:49;;;;;;;4.43;4.13;;;5.20;99.90;;;5.73;100.00;96391.13;5240551;28;20471;-66
2022/01/05 01:43:22;;;;;;;4.40;4.10;;;5.10;99.90;;;5.80;100.00;96403.31;5241425;28;20205;-66
2022/01/05 01:45:56;;;;;;;4.13;3.77;;;5.00;99.90;;;5.86;100.00;96400.22;5241642;28;20759;-66
2022/01/05 01:48:29;;;;;;;3.50;3.30;;;5.00;99.90;;;5.80;100.00;96398.25;5242808;28;20243;-69
2022/01/05 01:51:04;;;;;;;2.40;2.30;;;5.00;99.90;;;5.68;100.00;96415.34;5246248;28;20302;-68
2022/01/05 01:53:37;;;;;;;2.50;2.40;;;5.00;99.90;;;5.68;100.00;96412.81;5244059;28;20214;-67
2022/01/05 01:56:12;;;;;;;2.70;2.60;;;5.00;99.90;;;5.72;100.00;96413.84;5245775;28;20197;-67
2022/01/05 01:58:48;;;;;;;3.60;3.00;;;5.10;99.90;;;5.82;100.00;96409.34;5243852;28;20290;-67
2022/01/05 02:01:21;;;;;;;3.00;2.90;;;5.10;99.90;;;5.76;100.00;96398.03;5245184;28;20234;-67
2022/01/05 02:03:54;;;;;;;2.40;2.30;;;5.00;99.90;;;5.80;100.00;96395.69;5246181;28;20204;-66
2022/01/05 02:06:29;;;;;;;2.50;2.30;;;5.00;99.90;;;5.86;100.00;96390.06;5246261;28;20200;-66
2022/01/05 02:09:02;;;;;;;2.33;2.23;;;5.10;99.90;;;5.71;100.00;96396.91;5247042;28;20594;-67
2022/01/05 02:11:39;;;;;;;3.00;2.90;;;5.00;99.90;;;5.56;100.00;96395.31;5244632;28;20216;-66
2022/01/05 02:14:13;;;;;;;2.63;2.53;;;4.90;99.90;;;5.60;100.00;96393.81;5241384;28;20200;-66
2022/01/05 02:16:46;;;;;;;3.10;2.90;;;4.90;99.90;;;5.61;100.00;96390.50;5244951;28;20197;-66
2022/01/05 02:19:19;;;;;;;3.60;3.40;;;4.90;99.90;;;5.64;100.00;96395.72;5246130;28;20193;-66
2022/01/05 02:21:53;;;;;;;4.60;4.20;;;4.90;99.90;;;5.65;100.00;96393.25;5245353;28;20565;-66
2022/01/05 02:24:26;;;;;;;4.47;4.07;;;5.00;99.90;;;5.65;100.00;96392.38;5245040;28;20580;-66
2022/01/05 02:27:00;;;;;;;4.70;4.30;;;5.00;99.90;;;5.66;100.00;96404.25;5249472;28;20207;-66
2022/01/05 02:29:33;;;;;;;5.93;5.53;;;5.00;99.90;;;5.58;100.00;96401.34;5245281;28;20227;-66
2022/01/05 02:32:11;;;;;;;4.97;4.57;;;4.90;99.90;;;5.50;100.00;96399.19;5242230;28;20216;-66
2022/01/05 02:34:46;;;;;;;6.10;5.60;;;4.90;99.90;;;5.48;100.00;96395.72;5245121;28;20193;-66
2022/01/05 02:37:20;;;;;;;6.27;5.77;;;4.90;99.90;;;5.54;100.00;96398.56;5245675;28;20206;-66
2022/01/05 02:39:53;;;;;;;5.70;5.20;;;4.90;99.90;;;5.56;100.00;96395.31;5246091;28;20200;-66
2022/01/05 02:42:27;;;;;;;5.77;5.27;;;4.90;99.90;;;5.60;100.00;96398.88;5245712;28;20220;-66
2022/01/05 02:45:00;;;;;;;5.67;5.17;;;5.00;99.90;;;5.59;100.00;96410.69;5245259;28;20207;-67
2022/01/05 02:47:34;;;;;;;6.07;5.57;;;5.10;99.90;;;5.67;100.00;96411.09;5241923;28;20201;-67
2022/01/05 02:50:10;;;;;;;5.73;5.23;;;5.10;99.90;;;5.70;100.00;96408.72;5245243;28;20221;-66
2022/01/05 02:52:44;;;;;;;5.73;5.23;;;5.10;99.90;;;5.62;100.00;96412.50;5243941;28;20611;-66
2022/01/05 02:55:17;;;;;;;5.47;5.07;;;5.00;99.90;;;5.67;100.00;96413.63;5245430;28;20196;-66
2022/01/05 02:57:50;;;;;;;4.97;4.57;;;5.10;99.90;;;5.64;100.00;96419.41;5244627;28;20211;-66
2022/01/05 03:00:24;;;;;;;5.30;4.90;;;5.00;99.90;;;5.61;100.00;96420.91;5244426;28;20662;-66
2022/01/05 03:02:57;;;;;;;5.67;5.27;;;5.00;99.90;;;5.65;100.00;96410.13;5232707;22;20226;-64
2022/01/05 03:05:30;;;;;;;5.20;4.80;;;5.00;99.90;;;5.68;100.00;96417.88;5211978;28;20275;-65
2022/01/05 03:08:05;;;;;;;5.43;4.93;;;5.10;99.90;;;5.73;100.00;96415.59;5215890;28;20206;-64
2022/01/05 03:10:38;;;;;;;5.27;4.73;;;5.10;99.90;;;5.74;100.00;96418.19;5214919;28;20305;-65
2022/01/05 03:13:11;;;;;;;4.67;4.27;;;5.10;99.90;;;5.74;100.00;96423.28;5200939;28;20228;-64
2022/01/05 03:15:44;;;;;;;4.73;4.33;;;5.10;99.90;;;5.77;100.00;96420.91;5203717;28;20299;-65
2022/01/05 03:18:18;;;;;;;5.13;4.73;;;5.20;99.90;;;5.88;100.00;96431.59;5203530;28;20304;-65
2022/01/05 03:20:51;;;;;;;2.30;2.20;;;5.10;99.90;;;6.03;100.00;96418.88;5206674;28;20190;-65
2022/01/05 03:23:25;;;;;;;2.20;2.10;;;5.30;99.90;;;5.98;100.00;96427.91;5204195;28;20764;-65
2022/01/05 03:25:58;;;;;;;2.00;1.90;;;5.30;99.90;;;5.96;100.00;96429.50;5203441;28;20215;-65
2022/01/05 03:28:31;;;;;;;1.67;1.67;;;5.30;99.90;;;6.07;100.00;96429.25;5203947;28;20208;-64
2022/01/05 03:31:04;;;;;;;1.63;1.63;;;5.50;99.90;;;6.04;100.00;96433.31;5205393;28;20685;-65
2022/01/05 03:33:38;;;;;;;1.93;1.93;;;5.40;99.90;;;6.06;100.00;96424.09;5202122;28;20203;-64
2022/01/05 03:36:11;;;;;;;2.10;1.97;;;5.50;99.90;;;6.16;100.00;96433.06;5203832;28;20543;-65
2022/01/05 03:38:45;;;;;;;2.10;2.00;;;5.50;99.90;;;6.16;100.00;96423.78;5201763;28;20212;-65
2022/01/05 03:41:18;;;;;;;1.90;1.90;;;5.60;99.90;;;6.07;100.00;96428.38;5203621;28;20210;-65
2022/01/05 03:43:51;;;;;;;1.70;1.70;;;5.50;99.90;;;6.08;100.00;96420.84;5202980;28;20207;-65
2022/01/05 03:46:25;;;;;;;1.83;1.83;;;5.50;99.90;;;5.99;100.00;96429.66;5203558;28;20198;-64
2022/01/05 03:48:59;;;;;;;1.97;1.87;;;5.50;99.90;;;6.07;100.00;96428.38;5202749;28;20210;-64
2022/01/05 03:51:32;;;;;;;1.80;1.80;;;5.50;99.90;;;6.08;100.00;96425.06;5200748;28;20221;-64
2022/01/05 03:54:07;;;;;;;1.93;1.83;;;5.50;99.90;;;6.11;100.00;96430.28;5202348;28;20586;-64
2022/01/05 03:56:40;;;;;;;1.80;1.80;;;5.60;99.90;;;6.04;100.00;96423.16;5202355;28;20190;-64
2022/01/05 03:59:13;;;;;;;2.10;2.10;;;5.50;99.90;;;6.12;100.00;96419.31;5203609;28;20206;-65
2022/01/05 04:01:46;;;;;;;1.80;1.80;;;5.70;99.90;;;6.17;100.00;96415.34;5202699;28;20229;-64
2022/01/05 04:04:19;;;;;;;1.80;1.80;;;5.70;99.90;;;6.12;100.00;96414.25;5202518;28;20281;-64
2022/01/05 04:06:52;;;;;;;2.20;2.00;;;5.60;99.90;;;5.98;100.00;96422.81;5204689;28;20208;-65
2022/01/05 04:09:27;;;;;;;1.93;1.90;;;5.60;99.90;;;6.16;100.00;96426.31;5201440;28;20206;-64
2022/01/05 04:12:00;;;;;;;2.00;2.00;;;5.60;99.90;;;6.18;100.00;96426.38;5203976;28;20244;-64
2022/01/05 04:14:33;;;;;;;2.10;2.10;;;5.70;99.90;;;6.16;100.00;96431.38;5201744;28;20433;-65
2022/01/05 04:17:09;;;;;;;2.00;1.90;;;5.60;99.90;;;6.12;100.00;96437.06;5203539;28;20194;-65
2022/01/05 04:19:42;;;;;;;2.00;1.90;;;5.70;99.90;;;6.20;100.00;96428.19;5201811;28;20197;-64
2022/01/05 04:22:15;;;;;;;2.10;1.90;;;5.70;99.90;;;6.19;100.00;96431.53;5204219;28;20320;-65
2022/01/05 04:24:50;;;;;;;2.13;2.13;;;5.80;99.90;;;6.19;100.00;96429.00;5201597;28;20212;-64
2022/01/05 04:27:23;;;;;;;1.93;1.90;;;5.60;99.90;;;6.08;100.00;96438.59;5203482;28;20224;-65
2022/01/05 04:29:56;;;;;;;1.70;1.70;;;5.60;99.90;;;6.06;100.00;96429.16;5201398;28;20206;-65
2022/01/05 04:32:29;;;;;;;2.07;2.07;;;5.60;99.90;;;6.09;100.00;96429.31;5202321;28;20594;-65
2022/01/05 04:35:22;;;;;;;1.87;1.87;;;5.60;99.90;;;5.94;99.71;96437.00;5202789;28;20205;-65
2022/01/05 04:37:59;;;;;;;1.60;1.60;;;5.60;99.90;;;6.07;100.00;96429.25;5204673;28;20562;-65
2022/01/05 04:40:33;;;;;;;1.87;1.77;;;5.60;99.90;;;6.13;100.00;96421.09;5202454;28;20280;-65
2022/01/05 04:43:06;;;;;;;2.03;2.03;;;5.70;99.90;;;6.12;100.00;96424.41;5202742;28;20228;-65
2022/01/05 04:45:39;;;;;;;1.60;1.60;;;5.70;99.90;;;6.06;100.00;96431.69;5202499;28;20230;-65
2022/01/05 04:48:12;;;;;;;1.97;1.90;;;5.60;99.90;;;6.06;100.00;96432.56;5202373;28;20206;-65
2022/01/05 04:50:46;;;;;;;2.20;2.20;;;5.70;99.90;;;5.98;100.00;96438.94;5202758;28;20704;-65
2022/01/05 04:53:19;;;;;;;1.70;1.70;;;5.60;99.90;;;6.01;100.00;96450.88;5203589;28;20236;-65
2022/01/05 04:55:54;;;;;;;2.10;2.10;;;5.60;99.90;;;6.09;100.00;96442.00;5205563;28;20198;-65
2022/01/05 04:58:32;;;;;;;1.80;1.80;;;5.60;99.90;;;6.10;100.00;96428.53;5201637;28;20190;-65
2022/01/05 05:01:05;;;;;;;1.87;1.77;;;5.60;99.90;;;6.11;100.00;96447.16;5201989;28;20193;-65
2022/01/05 05:03:38;;;;;;;1.63;1.63;;;5.60;99.90;;;6.05;100.00;96451.13;5202422;28;20233;-64
2022/01/05 05:06:11;;;;;;;1.57;1.50;;;5.60;99.90;;;6.04;100.00;96453.59;5201410;28;20204;-65
2022/01/05 05:08:44;;;;;;;1.80;1.80;;;5.50;99.90;;;5.98;100.00;96460.84;5201993;28;20578;-64
2022/01/05 05:11:19;;;;;;;1.70;1.60;;;5.50;99.90;;;5.96;100.00;96459.94;5202918;28;20229;-65
2022/01/05 05:13:52;;;;;;;2.00;2.00;;;5.50;99.90;;;5.87;100.00;96461.16;5202393;28;20193;-65
2022/01/05 05:16:25;;;;;;;2.10;2.00;;;5.50;99.90;;;5.91;100.00;96467.25;5200416;28;20212;-64
2022/01/05 05:18:58;;;;;;;2.00;2.00;;;5.40;99.90;;;5.84;100.00;96460.13;5204553;28;20691;-66
2022/01/05 05:21:31;;;;;;;1.93;1.93;;;5.30;99.90;;;5.81;100.00;96454.91;5199224;28;20443;-65
2022/01/05 05:24:05;;;;;;;2.10;2.00;;;5.20;99.90;;;5.69;100.00;96475.38;5201528;28;20194;-65
2022/01/05 05:26:39;;;;;;;1.67;1.57;;;5.20;99.90;;;5.73;100.00;96487.44;5201430;28;20631;-65
2022/01/05 05:29:13;;;;;;;1.80;1.80;;;5.20;99.90;;;5.80;100.00;96486.09;5199866;28;20205;-65
2022/01/05 05:31:46;;;;;;;2.00;2.00;;;5.20;99.90;;;5.75;100.00;96490.94;5200233;28;21749;-65
2022/01/05 05:34:19;;;;;;;2.27;2.17;;;5.20;99.90;;;5.74;100.00;96493.38;5199027;28;20677;-65
2022/01/05 05:36:52;;;;;;;1.90;1.90;;;5.20;99.90;;;5.75;100.00;96490.94;5200287;28;20198;-65
2022/01/05 05:39:25;;;;;;;1.80;1.80;;;5.10;99.90;;;5.74;100.00;96501.84;5201087;28;20454;-65
2022/01/05 05:42:00;;;;;;;2.10;2.00;;;5.10;99.90;;;5.81;100.00;96508.16;5203250;28;20218;-66
2022/01/05 05:44:33;;;;;;;1.80;1.70;;;5.10;99.90;;;5.74;100.00;96524.66;5199352;28;20683;-66
2022/01/05 05:47:07;;;;;;;2.03;1.93;;;5.10;99.90;;;5.69;100.00;96527.75;5202742;28;20209;-65
2022/01/05 05:49:40;;;;;;;1.67;1.67;;;5.10;99.90;;;5.71;100.00;96537.19;5203923;28;20214;-65
2022/01/05 05:52:13;;;;;;;1.90;1.90;;;5.00;99.90;;;5.59;100.00;96554.28;5202776;28;20230;-66
2022/01/05 05:54:46;;;;;;;1.90;1.80;;;5.00;99.90;;;5.55;100.00;96577.69;5202727;28;20201;-66
2022/01/05 05:57:41;;;;;;;1.80;1.80;;;4.90;99.90;;;5.29;100.00;96599.91;5203324;28;20212;-65
2022/01/05 06:00:15;;;;;;;2.33;2.23;;;4.80;99.90;;;5.08;100.00;96613.88;5201141;28;20680;-64
2022/01/05 06:02:48;;;;;;;1.93;1.90;;;4.50;99.90;;;4.85;100.00;96628.59;5199848;28;20659;-65
2022/01/05 06:05:22;;;;;;;2.60;2.50;;;4.30;99.90;;;4.88;100.00;96636.38;5203835;28;20194;-65
2022/01/05 06:07:55;;;;;;;2.73;2.63;;;4.20;99.90;;;4.66;100.00;96653.59;5197979;28;20208;-65
2022/01/05 06:10:28;;;;;;;2.50;2.40;;;4.00;99.90;;;4.58;100.00;96654.78;5200833;28;20583;-64
2022/01/05 06:13:02;;;;;;;2.83;2.73;;;3.90;99.90;;;4.56;100.00;96658.91;5203087;28;20218;-64
2022/01/05 06:15:39;;;;;;;2.97;2.87;;;3.70;99.90;;;4.46;100.00;96668.47;5199580;28;20224;-64
2022/01/05 06:18:12;;;;;;;3.60;3.40;;;3.70;99.90;;;4.24;100.00;96673.00;5202817;28;20198;-65
2022/01/05 06:20:45;;;;;;;3.40;3.30;;;3.50;99.90;;;3.95;100.00;96677.13;5199972;28;20213;-64
2022/01/05 06:23:19;;;;;;;4.10;3.90;;;3.30;99.90;;;3.95;100.00;96681.25;5202605;28;20568;-65
2022/01/05 06:25:52;;;;;;;4.10;3.90;;;3.30;99.90;;;3.85;100.00;96695.00;5197751;28;20198;-64
2022/01/05 06:28:26;;;;;;;4.33;4.13;;;3.20;99.90;;;3.73;100.00;96704.31;5201228;28;20196;-65
2022/01/05 06:30:59;;;;;;;4.73;4.43;;;3.20;99.90;;;3.75;100.00;96700.22;5199561;28;20201;-65
2022/01/05 06:33:32;;;;;;;5.10;4.90;;;3.20;99.90;;;3.83;100.00;96716.75;5201085;28;20217;-64
2022/01/05 06:36:06;;;;;;;5.03;4.73;;;3.20;99.90;;;3.61;100.00;96720.44;5204019;28;20239;-65
2022/01/05 06:38:39;;;;;;;5.50;5.13;;;3.10;99.90;;;3.59;100.00;96729.56;5202454;28;20281;-65
2022/01/05 06:41:12;;;;;;;5.70;5.20;;;3.00;99.90;;;3.58;100.00;96742.97;5203333;28;20216;-65
2022/01/05 06:43:47;;;;;;;6.47;6.03;;;3.00;99.90;;;3.70;100.00;96752.13;5201321;28;20216;-65
2022/01/05 06:46:20;;;;;;;5.77;5.37;;;3.00;99.90;;;3.67;100.00;96757.84;5203448;28;20196;-65
2022/01/05 06:48:53;;;;;;;5.57;5.27;;;3.10;99.90;;;3.66;100.00;96765.31;5204218;28;20193;-64
2022/01/05 06:51:26;;;;;;;6.77;6.37;;;3.00;99.90;;;3.57;100.00;96775.69;5202694;28;21672;-65
2022/01/05 06:54:00;;;;;;;6.70;6.20;;;3.00;99.90;;;3.35;100.00;96783.53;5204268;28;20205;-65
2022/01/05 06:56:33;;;;;;;5.67;5.37;;;2.90;99.90;;;3.31;100.00;96773.97;5199520;28;20208;-65
2022/01/05 06:59:07;;;;;;;5.83;5.37;;;2.80;99.90;;;3.25;100.00;96789.59;5200247;28;20205;-64
2022/01/05 07:01:40;;;;;;;5.93;5.53;;;2.80;99.90;;;3.31;100.00;96799.22;5201110;28;20236;-64
2022/01/05 07:04:14;;;;;;;6.70;6.20;;;2.80;99.90;;;3.29;100.00;96798.25;5200880;28;20580;-65
2022/01/05 07:06:47;;;;;;;7.00;6.40;;;2.90;99.90;;;3.32;100.00;96808.53;5204973;28;20212;-64
2022/01/05 07:09:20;;;;;;;7.07;6.47;;;2.80;99.90;;;3.49;100.00;96815.63;5202284;28;20208;-65
2022/01/05 07:11:53;;;;;;;6.50;6.03;;;2.90;99.90;;;3.41;100.00;96811.72;5204418;28;20225;-65
2022/01/05 07:14:33;;;;;;;6.67;6.07;;;2.90;99.90;;;3.41;100.00;96814.25;5200090;28;20233;-65
2022/01/05 07:17:07;;;;;;;6.73;6.13;;;2.90;99.90;;;3.37;100.00;96822.38;5205570;28;20292;-65
2022/01/05 07:19:40;;;;;;;6.30;5.80;;;2.90;99.90;;;3.50;100.00;96827.47;5201530;28;20205;-65
2022/01/05 07:22:13;;;;;;;6.73;6.13;;;2.90;99.90;;;3.59;100.00;96840.72;5204157;28;20593;-65
2022/01/05 07:24:46;;;;;;;6.37;5.80;;;3.00;99.90;;;3.48;100.00;96845.81;5204372;28;20213;-65
2022/01/05 07:27:19;;;;;;;7.10;6.47;;;2.90;99.90;;;3.43;100.00;96848.03;5203531;28;20209;-65
2022/01/05 07:29:54;;;;;;;7.23;6.50;;;2.90;99.90;;;3.38;100.00;96854.44;5199854;28;20291;-64
2022/01/05 07:32:28;;;;;;;6.80;6.13;;;2.90;99.90;;;3.38;100.00;96867.06;5201308;28;20232;-64
2022/01/05 07:35:01;;;;;;;7.70;5.93;;;3.00;99.90;;;3.43;100.00;96870.75;5203424;28;20205;-65
2022/01/05 07:37:34;;;;;;;5.33;4.93;;;2.90;99.90;;;3.35;100.00;96880.34;5202895;28;21317;-65
2022/01/05 07:40:09;;;;;;;5.40;5.00;;;2.80;99.90;;;3.33;100.00;96881.88;5204821;28;20690;-64
2022/01/05 07:42:42;;;;;;;5.80;4.97;;;2.80;99.90;;;3.23;100.00;96874.44;5199799;28;20622;-65
2022/01/05 07:45:18;;;;;;;5.00;4.23;;;2.80;99.90;;;3.13;100.00;96882.16;5201865;28;20248;-65
2022/01/05 07:47:51;;;;;;;4.63;4.17;;;2.70;99.90;;;2.97;100.00;96881.88;5200239;28;20199;-65
2022/01/05 07:50:24;;;;;;;4.80;4.40;;;2.50;99.90;;;2.97;100.00;96885.25;5200466;28;20249;-65
2022/01/05 07:53:00;;;;;;;5.50;5.00;;;2.40;99.90;;;2.96;100.00;96892.75;5204192;28;20230;-65
2022/01/05 07:55:35;;;;;;;6.87;4.83;;;2.50;99.90;;;2.90;100.00;96909.19;5200813;28;20199;-64
2022/01/05 07:58:08;;;;;;;5.60;4.93;;;2.40;99.90;;;2.84;100.00;96907.91;5202036;28;20205;-65
2022/01/05 08:00:42;;;;;;;6.13;5.63;;;2.40;99.90;;;2.89;100.00;96911.59;5198207;28;20301;-65
2022/01/05 08:03:16;;;;;;;8.83;7.43;;;2.40;99.90;;;2.85;100.00;96924.78;5197796;28;20512;-65
2022/01/05 08:06:08;;;;;;;7.50;6.77;;;2.40;99.90;;;2.80;100.00;96933.66;5198092;28;20198;-64
2022/01/05 08:08:43;;;;;;;6.67;6.13;;;2.40;99.90;;;2.81;100.00;96932.91;5196346;28;20286;-65
2022/01/05 08:11:17;;;;;;;6.63;6.10;;;2.40;99.90;;;2.75;100.00;96935.88;5195701;28;20225;-63
2022/01/05 08:13:52;;;;;;;6.20;5.70;;;2.30;99.90;;;2.83;100.00;96941.44;5200270;28;20477;-65
2022/01/05 08:16:26;;;;;;;6.03;5.63;;;2.30;99.90;;;2.65;100.00;96941.88;5196884;28;20292;-63
2022/01/05 08:18:59;;;;;;;6.10;5.70;;;2.20;99.90;;;2.70;100.00;96945.63;5202294;28;20208;-64
2022/01/05 08:21:32;;;;;;;6.47;5.97;;;2.30;99.90;;;2.52;100.00;96948.44;5198109;28;20218;-64
2022/01/05 08:24:06;;;;;;;5.13;4.73;;;2.10;99.90;;;2.68;100.00;96956.38;5199935;28;20198;-64
2022/01/05 08:26:40;;;;;;;5.67;5.27;;;2.20;99.90;;;2.81;100.00;96963.19;5198936;28;20287;-63
2022/01/05 08:29:13;;;;;;;5.67;5.27;;;2.20;99.90;;;2.77;100.00;96971.28;5199390;28;20632;-65
2022/01/05 08:31:47;;;;;;;5.43;5.03;;;2.20;99.90;;;2.67;100.00;96967.22;5198966;28;20357;-65
2022/01/05 08:34:21;;;;;;;6.17;5.60;;;2.10;99.90;;;2.62;100.00;96976.97;5198763;28;20279;-64
2022/01/05 08:36:54;;;;;;;6.43;5.87;;;2.20;99.90;;;2.55;100.00;96984.88;5199846;28;20203;-65
2022/01/05 08:39:27;;;;;;;6.33;5.87;;;2.10;99.90;;;2.64;100.00;96985.53;5200691;28;20571;-65
2022/01/05 08:42:00;;;;;;;5.87;5.47;;;2.10;99.90;;;2.61;100.00;96990.38;5202914;28;20239;-64
2022/01/05 08:44:33;;;;;;;6.30;5.80;;;2.20;99.90;;;2.63;100.00;96996.41;5199376;28;20210;-64
2022/01/05 08:47:08;;;;;;;6.27;5.67;;;2.20;99.90;;;2.59;100.00;96996.06;5201901;28;20288;-65
2022/01/05 08:49:41;;;;;;;6.47;5.87;;;2.20;99.90;;;2.66;100.00;97004.19;5200524;28;20208;-64
2022/01/05 08:52:14;;;;;;;5.60;5.30;;;2.20;99.90;;;2.74;100.00;97007.25;5197858;28;20271;-65
2022/01/05 08:54:48;;;;;;;5.97;5.40;;;2.30;99.90;;;2.80;100.00;97011.88;5200663;28;20201;-65
2022/01/05 08:57:22;;;;;;;5.87;5.37;;;2.30;99.90;;;2.80;100.00;97021.97;5199436;28;20201;-65
2022/01/05 08:59:55;;;;;;;5.93;5.43;;;2.40;99.90;;;2.96;100.00;97023.97;5201777;28;20206;-65
2022/01/05 09:02:29;;;;;;;5.33;4.93;;;2.50;99.90;;;2.93;100.00;97027.16;5200314;28;20234;-63
2022/01/05 09:05:03;;;;;;;5.83;5.23;;;2.50;99.90;;;2.98;100.00;97033.41;5203009;28;20197;-65
2022/01/05 09:07:36;;;;;;;6.10;5.57;;;2.50;99.90;;;3.02;100.00;97030.34;5200223;28;20297;-65
2022/01/05 09:10:10;;;;;;;6.33;5.73;;;2.50;99.90;;;3.07;100.00;97038.25;5200154;28;20201;-65
2022/01/05 09:12:44;;;;;;;6.43;5.83;;;2.50;99.90;;;3.02;100.00;97045.47;5196547;28;20231;-65
2022/01/05 09:15:17;;;;;;;5.63;5.20;;;2.40;99.90;;;3.01;100.00;97047.91;5195425;28;20201;-64
2022/01/05 09:17:52;;;;;;;6.80;5.37;;;2.40;99.90;;;2.94;100.00;97051.59;5200881;28;20212;-65
2022/01/05 09:20:26;;;;;;;6.10;5.13;;;2.40;99.90;;;3.06;100.00;97061.72;5201128;28;20205;-64
2022/01/05 09:23:00;;;;;;;6.80;6.10;;;2.50;99.90;;;3.01;100.00;97058.88;5202410;28;20210;-64
2022/01/05 09:25:33;;;;;;;7.17;5.60;;;2.50;99.90;;;3.06;100.00;97060.09;5201328;28;20219;-64
2022/01/05 09:28:08;;;;;;;7.27;6.57;;;2.50;99.90;;;3.06;100.00;97059.19;5202739;28;20206;-65
2022/01/05 09:30:45;;;;;;;7.80;6.10;;;2.50;99.90;;;3.03;100.00;97072.47;5200735;28;20213;-64
2022/01/05 09:33:22;;;;;;;5.40;5.00;;;2.40;99.90;;;2.93;100.00;97075.09;5201453;28;20230;-65
2022/01/05 09:36:03;;;;;;;6.07;5.57;;;2.40;99.90;;;2.99;100.00;97067.97;5203345;28;20671;-64
2022/01/05 09:41:56;;;;;;;6.77;5.77;;;2.40;99.90;;;3.03;100.00;97080.03;5203784;28;20321;-64
2022/01/05 09:44:22;;;;;;;6.17;5.57;;;2.50;99.90;;;3.20;100.00;97087.97;5197811;28;20204;-64
2022/01/05 09:47:23;;;;;;;6.70;5.67;;;2.50;99.90;;;3.34;100.00;97097.41;5201126;28;20676;-65
2022/01/05 09:50:03;;;;;;;6.20;5.60;;;2.70;99.90;;;3.23;100.00;97098.28;5203479;28;20275;-65
2022/01/05 09:52:37;;;;;;;8.17;5.80;;;2.60;99.90;;;3.25;100.00;97102.69;5197065;28;20237;-64
2022/01/05 09:55:12;;;;;;;6.50;4.70;;;2.60;99.90;;;3.32;97.99;97107.44;5198751;28;20215;-64
2022/01/05 09:57:47;;;;;;;6.10;4.80;;;2.70;99.90;;;3.46;98.84;97110.91;5197600;28;20206;-65
2022/01/05 10:00:24;;;;;;;4.50;4.10;;;2.90;99.90;;;3.49;97.38;97123.81;5198656;28;20291;-64
2022/01/05 10:02:57;;;;;;;6.30;4.43;;;3.00;99.90;;;3.46;96.66;97133.66;5198327;28;20231;-65
2022/01/05 10:05:32;;;;;;;8.47;4.40;;;2.90;99.90;;;3.48;92.71;97134.66;5197382;28;20198;-65
2022/01/05 10:08:06;;;;;;;5.97;3.60;;;2.90;99.90;;;3.49;94.76;97141.47;5199633;28;20213;-64
2022/01/05 10:10:41;;;;;;;5.90;3.80;;;2.80;99.90;;;3.27;89.07;97143.22;5204063;28;20204;-65
2022/01/05 10:13:16;;;;;;;5.40;3.50;;;2.70;99.90;;;3.34;94.10;97145.41;5204852;28;20239;-65
2022/01/05 10:15:49;;;;;;;8.03;4.10;;;2.70;99.90;;;3.36;94.63;97149.78;5203849;28;20206;-64
2022/01/05 10:18:23;;;;;;;8.83;4.20;;;2.80;99.90;;;3.24;93.45;97153.09;5204966;28;20204;-65
2022/01/05 10:21:01;;;;;;;6.93;4.10;;;2.70;99.90;;;3.20;94.97;97156.13;5204490;28;20686;-65
2022/01/05 10:23:38;;;;;;;6.60;4.10;;;2.60;99.90;;;3.09;91.55;97153.72;5202817;28;20204;-65
2022/01/05 10:26:30;;;;;;;7.07;4.23;;;2.50;99.90;;;2.78;84.30;97164.81;5201591;28;20198;-64
2022/01/05 10:29:06;;;;;;;6.20;3.80;;;2.30;99.90;;;2.75;88.56;97162.94;5199475;28;20194;-65
2022/01/05 10:31:41;;;;;;;7.07;3.90;;;2.30;99.90;;;3.09;95.56;97173.91;5202347;28;20222;-64
2022/01/05 10:34:18;;;;;;;6.23;4.20;;;2.50;99.90;;;3.18;95.73;97178.75;5206706;28;20227;-64
2022/01/05 10:36:56;;;;;;;7.37;4.30;;;2.50;99.90;;;3.22;96.61;97184.91;5206949;28;20209;-65
2022/01/05 10:39:33;;;;;;;4.93;4.00;;;2.60;99.90;;;3.24;96.57;97178.34;5201062;28;20206;-64
2022/01/05 10:42:10;;;;;;;6.47;4.40;;;2.60;99.90;;;3.18;94.02;97181.28;5200415;28;20692;-65
2022/01/05 10:44:44;;;;;;;7.63;4.13;;;2.60;99.90;;;3.26;91.13;97177.69;5199544;28;20200;-65
2022/01/05 10:47:17;;;;;;;5.97;4.50;;;2.70;99.90;;;3.23;90.77;97186.66;5200818;28;20684;-65
2022/01/05 10:49:50;;;;;;;7.13;4.83;;;2.80;99.90;;;3.38;91.72;97181.09;5202704;28;20201;-65
2022/01/05 10:52:27;;;;;;;5.97;3.73;;;2.70;99.90;;;3.29;90.78;97187.09;5200566;28;20240;-65
2022/01/05 10:55:12;;;;;;;7.23;4.07;;;2.70;99.90;;;3.09;88.23;97184.00;5200487;28;20207;-65
2022/01/05 10:57:57;;;;;;;7.87;3.80;;;2.60;99.90;;;3.07;91.55;97180.47;5200634;28;20200;-64